Lahaina, Hawaii
Current Conditions -  °F | °C
As of 1:54 PM on Friday 21 Nov 2014 (Local Time) from PHOG Reporting Station
Scattered Clouds Scattered Clouds  
Wind Chill: 83°   Ceiling: Unl
Heat Index: 86°   Visibility: 10mi
Dew Point: 69°   Wind: 23mph
Humidity: 63%   Direction: 70°ENE
Pressure: 29.97"   Gusts: 38mph
Location:  20.88°N, 156.67°W
Report Text: PHOG 212354Z 07020G33KT 10SM SCT035 28/21 A2997 RMK AO2 PK WND 07033/2346 SLP152 60000 T02830206 10294 20233 56026
Loading
Personal Weather Stations






























Interactive Weather Map New forecast layout! Learn more

10-Day Weather Forecast

Advertisements
Track Severe Weather on mobile